Welcome to La Porte Aviation Services!

An aviation adventure awaits

Current Weather Conditions

Available data for KPPO from the past 2 hours
LA PORTE, IN
Metar
KPPO 240915Z AUTO 00000KT 10SM CLR 10/10 A3002 RMK AO2 T01030097

09:15 UTC

Wind: 0° 0kt

Visibility: 10 SM

Sky:

Temp: 10 deg C / 50 deg F

Dewpoint: 10 deg C / 50 deg F

Pressure: 30.02 inHg

Connect with us on Facebook!

Facebook By Weblizar Powered By Weblizar